sensor_id;sensor_type;location;lat;lon;timestamp;pressure;altitude;pressure_sealevel;temperature
45701;BMP280;36277;32.852;-116.998;2023-03-16T00:00:50;99986.19;;;23.59
45701;BMP280;36277;32.852;-116.998;2023-03-16T00:03:16;99992.53;;;23.60
45701;BMP280;36277;32.852;-116.998;2023-03-16T00:05:49;100002.34;;;23.62
45701;BMP280;36277;32.852;-116.998;2023-03-16T00:08:17;100009.72;;;23.62
45701;BMP280;36277;32.852;-116.998;2023-03-16T00:10:44;99994.63;;;23.58
45701;BMP280;36277;32.852;-116.998;2023-03-16T00:13:13;99987.25;;;23.58
45701;BMP280;36277;32.852;-116.998;2023-03-16T00:15:40;99994.84;;;23.56
45701;BMP280;36277;32.852;-116.998;2023-03-16T00:18:06;100006.06;;;23.55
45701;BMP280;36277;32.852;-116.998;2023-03-16T00:20:33;100020.69;;;23.55
45701;BMP280;36277;32.852;-116.998;2023-03-16T00:22:59;99995.22;;;23.53
45701;BMP280;36277;32.852;-116.998;2023-03-16T00:25:27;99998.66;;;23.55
45701;BMP280;36277;32.852;-116.998;2023-03-16T00:27:54;99996.94;;;23.54
45701;BMP280;36277;32.852;-116.998;2023-03-16T00:30:20;99990.59;;;23.54
45701;BMP280;36277;32.852;-116.998;2023-03-16T00:32:47;100000.72;;;23.53
45701;BMP280;36277;32.852;-116.998;2023-03-16T00:35:14;100011.09;;;23.51
45701;BMP280;36277;32.852;-116.998;2023-03-16T00:37:40;100005.19;;;23.54
45701;BMP280;36277;32.852;-116.998;2023-03-16T00:40:08;100010.91;;;23.53
45701;BMP280;36277;32.852;-116.998;2023-03-16T00:42:36;100023.66;;;23.54
45701;BMP280;36277;32.852;-116.998;2023-03-16T00:45:03;100018.13;;;23.54
45701;BMP280;36277;32.852;-116.998;2023-03-16T00:47:32;100022.59;;;23.55
45701;BMP280;36277;32.852;-116.998;2023-03-16T00:50:00;100030.88;;;23.55
45701;BMP280;36277;32.852;-116.998;2023-03-16T00:52:27;100035.50;;;23.54
45701;BMP280;36277;32.852;-116.998;2023-03-16T00:54:54;100036.53;;;23.53
45701;BMP280;36277;32.852;-116.998;2023-03-16T00:57:23;100038.47;;;23.53
45701;BMP280;36277;32.852;-116.998;2023-03-16T00:59:49;100032.47;;;23.49
45701;BMP280;36277;32.852;-116.998;2023-03-16T01:02:17;100041.59;;;23.50
45701;BMP280;36277;32.852;-116.998;2023-03-16T01:04:44;100033.72;;;23.47
45701;BMP280;36277;32.852;-116.998;2023-03-16T01:07:13;100031.78;;;23.47
45701;BMP280;36277;32.852;-116.998;2023-03-16T01:09:40;100032.00;;;23.46
45701;BMP280;36277;32.852;-116.998;2023-03-16T01:12:13;100021.00;;;23.46
45701;BMP280;36277;32.852;-116.998;2023-03-16T01:14:40;100022.25;;;23.43
45701;BMP280;36277;32.852;-116.998;2023-03-16T01:17:08;100018.44;;;23.44
45701;BMP280;36277;32.852;-116.998;2023-03-16T01:19:36;100016.91;;;23.42
45701;BMP280;36277;32.852;-116.998;2023-03-16T01:22:04;100016.06;;;23.41
45701;BMP280;36277;32.852;-116.998;2023-03-16T01:24:31;100024.31;;;23.41
45701;BMP280;36277;32.852;-116.998;2023-03-16T01:26:59;100022.63;;;23.40
45701;BMP280;36277;32.852;-116.998;2023-03-16T01:29:26;100027.47;;;23.38
45701;BMP280;36277;32.852;-116.998;2023-03-16T01:31:52;100028.13;;;23.40
45701;BMP280;36277;32.852;-116.998;2023-03-16T01:34:21;100033.63;;;23.40
45701;BMP280;36277;32.852;-116.998;2023-03-16T01:36:48;100031.94;;;23.39
45701;BMP280;36277;32.852;-116.998;2023-03-16T01:39:15;100031.94;;;23.39
45701;BMP280;36277;32.852;-116.998;2023-03-16T01:41:43;100033.63;;;23.40
45701;BMP280;36277;32.852;-116.998;2023-03-16T01:44:16;100040.19;;;23.39
45701;BMP280;36277;32.852;-116.998;2023-03-16T01:46:42;100032.47;;;23.35
45701;BMP280;36277;32.852;-116.998;2023-03-16T01:54:21;100048.84;;;23.36
45701;BMP280;36277;32.852;-116.998;2023-03-16T01:59:33;100052.63;;;23.35
45701;BMP280;36277;32.852;-116.998;2023-03-16T02:02:01;100050.25;;;23.32
45701;BMP280;36277;32.852;-116.998;2023-03-16T02:04:31;100037.31;;;23.33
45701;BMP280;36277;32.852;-116.998;2023-03-16T02:07:02;100054.03;;;23.31
45701;BMP280;36277;32.852;-116.998;2023-03-16T02:09:30;100045.78;;;23.31
45701;BMP280;36277;32.852;-116.998;2023-03-16T02:11:58;100057.84;;;23.30
45701;BMP280;36277;32.852;-116.998;2023-03-16T02:14:26;100047.22;;;23.27
45701;BMP280;36277;32.852;-116.998;2023-03-16T02:16:53;100042.38;;;23.29
45701;BMP280;36277;32.852;-116.998;2023-03-16T02:22:14;100046.16;;;23.28
45701;BMP280;36277;32.852;-116.998;2023-03-16T02:24:41;100046.16;;;23.28
45701;BMP280;36277;32.852;-116.998;2023-03-16T02:27:14;100040.75;;;23.35
45701;BMP280;36277;32.852;-116.998;2023-03-16T02:30:05;100042.81;;;23.33
45701;BMP280;36277;32.852;-116.998;2023-03-16T02:32:33;100048.53;;;23.31
45701;BMP280;36277;32.852;-116.998;2023-03-16T02:35:01;100044.06;;;23.30
45701;BMP280;36277;32.852;-116.998;2023-03-16T02:37:28;100047.69;;;23.31
45701;BMP280;36277;32.852;-116.998;2023-03-16T02:39:54;100048.75;;;23.30
45701;BMP280;36277;32.852;-116.998;2023-03-16T02:42:22;100054.03;;;23.31
45701;BMP280;36277;32.852;-116.998;2023-03-16T02:44:58;100056.81;;;23.31
45701;BMP280;36277;32.852;-116.998;2023-03-16T02:47:35;100055.09;;;23.30
45701;BMP280;36277;32.852;-116.998;2023-03-16T02:50:02;100057.56;;;23.25
45701;BMP280;36277;32.852;-116.998;2023-03-16T02:52:35;100064.59;;;23.28
45701;BMP280;36277;32.852;-116.998;2023-03-16T02:55:04;100068.78;;;23.24
45701;BMP280;36277;32.852;-116.998;2023-03-16T02:57:31;100077.22;;;23.22
45701;BMP280;36277;32.852;-116.998;2023-03-16T02:59:58;100070.00;;;23.21
45701;BMP280;36277;32.852;-116.998;2023-03-16T03:02:24;100078.66;;;23.18
45701;BMP280;36277;32.852;-116.998;2023-03-16T03:04:50;100079.19;;;23.14
45701;BMP280;36277;32.852;-116.998;2023-03-16T03:07:20;100088.34;;;23.14
45701;BMP280;36277;32.852;-116.998;2023-03-16T03:09:46;100092.97;;;23.14
45701;BMP280;36277;32.852;-116.998;2023-03-16T03:12:13;100090.22;;;23.14
45701;BMP280;36277;32.852;-116.998;2023-03-16T03:14:39;100099.72;;;23.11
45701;BMP280;36277;32.852;-116.998;2023-03-16T03:17:07;100093.16;;;23.12
45701;BMP280;36277;32.852;-116.998;2023-03-16T03:19:35;100079.78;;;23.09
45701;BMP280;36277;32.852;-116.998;2023-03-16T03:22:03;100104.34;;;23.11
45701;BMP280;36277;32.852;-116.998;2023-03-16T03:24:34;100112.97;;;23.08
45701;BMP280;36277;32.852;-116.998;2023-03-16T03:27:00;100120.75;;;23.04
45701;BMP280;36277;32.852;-116.998;2023-03-16T03:29:31;100111.81;;;23.02
45701;BMP280;36277;32.852;-116.998;2023-03-16T03:32:02;100108.00;;;23.03
45701;BMP280;36277;32.852;-116.998;2023-03-16T03:34:30;100117.31;;;23.02
45701;BMP280;36277;32.852;-116.998;2023-03-16T03:36:57;100121.59;;;23.05
45701;BMP280;36277;32.852;-116.998;2023-03-16T03:39:24;100109.72;;;23.04
45701;BMP280;36277;32.852;-116.998;2023-03-16T03:41:50;100113.88;;;23.00
45701;BMP280;36277;32.852;-116.998;2023-03-16T03:44:22;100111.81;;;23.02
45701;BMP280;36277;32.852;-116.998;2023-03-16T03:46:49;100116.66;;;23.00
45701;BMP280;36277;32.852;-116.998;2023-03-16T03:49:16;100114.75;;;23.01
45701;BMP280;36277;32.852;-116.998;2023-03-16T03:51:43;100116.66;;;23.00
45701;BMP280;36277;32.852;-116.998;2023-03-16T03:54:09;100118.56;;;23.00
45701;BMP280;36277;32.852;-116.998;2023-03-16T03:56:36;100126.97;;;22.98
45701;BMP280;36277;32.852;-116.998;2023-03-16T03:59:02;100131.44;;;22.99
45701;BMP280;36277;32.852;-116.998;2023-03-16T04:01:28;100140.56;;;23.00
45701;BMP280;36277;32.852;-116.998;2023-03-16T04:03:54;100135.25;;;22.98
45701;BMP280;36277;32.852;-116.998;2023-03-16T04:06:21;100130.78;;;22.98
45701;BMP280;36277;32.852;-116.998;2023-03-16T04:08:47;100131.66;;;22.98
45701;BMP280;36277;32.852;-116.998;2023-03-16T04:11:14;100137.31;;;22.97
45701;BMP280;36277;32.852;-116.998;2023-03-16T04:13:40;100134.78;;;22.95
45701;BMP280;36277;32.852;-116.998;2023-03-16T04:16:06;100127.56;;;22.94
45701;BMP280;36277;32.852;-116.998;2023-03-16T04:18:33;100137.53;;;22.95
45701;BMP280;36277;32.852;-116.998;2023-03-16T04:21:04;100136.66;;;22.95
45701;BMP280;36277;32.852;-116.998;2023-03-16T04:23:31;100132.22;;;22.94
45701;BMP280;36277;32.852;-116.998;2023-03-16T04:26:01;100137.06;;;22.92
45701;BMP280;36277;32.852;-116.998;2023-03-16T04:28:28;100146.16;;;22.92
45701;BMP280;36277;32.852;-116.998;2023-03-16T04:30:54;100143.59;;;22.91
45701;BMP280;36277;32.852;-116.998;2023-03-16T04:33:21;100135.34;;;22.91
45701;BMP280;36277;32.852;-116.998;2023-03-16T04:35:48;100152.88;;;22.90
45701;BMP280;36277;32.852;-116.998;2023-03-16T04:38:15;100162.19;;;22.89
45701;BMP280;36277;32.852;-116.998;2023-03-16T04:40:41;100149.63;;;22.86
45701;BMP280;36277;32.852;-116.998;2023-03-16T04:43:07;100161.50;;;22.87
45701;BMP280;36277;32.852;-116.998;2023-03-16T04:45:33;100159.81;;;22.86
45701;BMP280;36277;32.852;-116.998;2023-03-16T04:48:00;100150.66;;;22.85
45701;BMP280;36277;32.852;-116.998;2023-03-16T04:50:26;100161.88;;;22.84
45701;BMP280;36277;32.852;-116.998;2023-03-16T04:52:52;100158.09;;;22.85
45701;BMP280;36277;32.852;-116.998;2023-03-16T04:55:19;100162.91;;;22.83
45701;BMP280;36277;32.852;-116.998;2023-03-16T04:57:45;100174.97;;;22.82
45701;BMP280;36277;32.852;-116.998;2023-03-16T05:00:12;100166.91;;;22.80
45701;BMP280;36277;32.852;-116.998;2023-03-16T05:02:44;100170.69;;;22.79
45701;BMP280;36277;32.852;-116.998;2023-03-16T05:05:11;100177.03;;;22.80
45701;BMP280;36277;32.852;-116.998;2023-03-16T05:07:37;100168.78;;;22.80
45701;BMP280;36277;32.852;-116.998;2023-03-16T05:10:04;100168.13;;;22.78
45701;BMP280;36277;32.852;-116.998;2023-03-16T05:12:30;100175.69;;;22.76
45701;BMP280;36277;32.852;-116.998;2023-03-16T05:14:56;100178.44;;;22.76
45701;BMP280;36277;32.852;-116.998;2023-03-16T05:17:23;100179.47;;;22.75
45701;BMP280;36277;32.852;-116.998;2023-03-16T05:19:49;100176.72;;;22.75
45701;BMP280;36277;32.852;-116.998;2023-03-16T05:22:16;100179.47;;;22.75
45701;BMP280;36277;32.852;-116.998;2023-03-16T05:24:43;100173.50;;;22.71
45701;BMP280;36277;32.852;-116.998;2023-03-16T05:27:09;100173.31;;;22.73
45701;BMP280;36277;32.852;-116.998;2023-03-16T05:29:35;100177.09;;;22.72
45701;BMP280;36277;32.852;-116.998;2023-03-16T05:32:01;100186.38;;;22.71
45701;BMP280;36277;32.852;-116.998;2023-03-16T05:34:28;100188.28;;;22.70
45701;BMP280;36277;32.852;-116.998;2023-03-16T05:36:56;100193.97;;;22.69
45701;BMP280;36277;32.852;-116.998;2023-03-16T05:39:23;100196.72;;;22.69
45701;BMP280;36277;32.852;-116.998;2023-03-16T05:41:49;100203.28;;;22.68
45701;BMP280;36277;32.852;-116.998;2023-03-16T05:44:15;100192.28;;;22.68
45701;BMP280;36277;32.852;-116.998;2023-03-16T05:46:41;100192.44;;;22.66
45701;BMP280;36277;32.852;-116.998;2023-03-16T05:49:10;100196.25;;;22.65
45701;BMP280;36277;32.852;-116.998;2023-03-16T05:51:37;100195.41;;;22.65
45701;BMP280;36277;32.852;-116.998;2023-03-16T05:54:04;100205.06;;;22.61
45701;BMP280;36277;32.852;-116.998;2023-03-16T05:56:30;100215.19;;;22.60
45701;BMP280;36277;32.852;-116.998;2023-03-16T05:58:56;100209.88;;;22.59
45701;BMP280;36277;32.852;-116.998;2023-03-16T06:01:23;100218.13;;;22.59
45701;BMP280;36277;32.852;-116.998;2023-03-16T06:03:50;100207.13;;;22.59
45701;BMP280;36277;32.852;-116.998;2023-03-16T06:06:20;100210.91;;;22.58
45701;BMP280;36277;32.852;-116.998;2023-03-16T06:08:49;100199.44;;;22.54
45701;BMP280;36277;32.852;-116.998;2023-03-16T06:11:16;100212.16;;;22.55
45701;BMP280;36277;32.852;-116.998;2023-03-16T06:13:42;100209.56;;;22.54
45701;BMP280;36277;32.852;-116.998;2023-03-16T06:16:08;100204.94;;;22.54
45701;BMP280;36277;32.852;-116.998;2023-03-16T06:18:36;100207.69;;;22.54
45701;BMP280;36277;32.852;-116.998;2023-03-16T06:21:02;100213.34;;;22.53
45701;BMP280;36277;32.852;-116.998;2023-03-16T06:23:29;100213.34;;;22.53
45701;BMP280;36277;32.852;-116.998;2023-03-16T06:25:55;100216.28;;;22.51
45701;BMP280;36277;32.852;-116.998;2023-03-16T06:28:24;100208.22;;;22.50
45701;BMP280;36277;32.852;-116.998;2023-03-16T06:30:54;100205.09;;;22.53
45701;BMP280;36277;32.852;-116.998;2023-03-16T06:33:21;100209.25;;;22.49
45701;BMP280;36277;32.852;-116.998;2023-03-16T06:35:47;100201.00;;;22.49
45701;BMP280;36277;32.852;-116.998;2023-03-16T06:38:15;100199.28;;;22.48
45701;BMP280;36277;32.852;-116.998;2023-03-16T06:40:41;100210.47;;;22.46
45701;BMP280;36277;32.852;-116.998;2023-03-16T06:43:08;100195.84;;;22.46
45701;BMP280;36277;32.852;-116.998;2023-03-16T06:45:34;100195.16;;;22.44
45701;BMP280;36277;32.852;-116.998;2023-03-16T06:48:01;100194.13;;;22.45
45701;BMP280;36277;32.852;-116.998;2023-03-16T06:50:27;100194.53;;;22.42
45701;BMP280;36277;32.852;-116.998;2023-03-16T06:52:53;100201.72;;;22.43
45701;BMP280;36277;32.852;-116.998;2023-03-16T06:55:20;100206.38;;;22.42
45701;BMP280;36277;32.852;-116.998;2023-03-16T06:57:46;100209.31;;;22.41
45701;BMP280;36277;32.852;-116.998;2023-03-16T07:00:14;100206.38;;;22.42
45701;BMP280;36277;32.852;-116.998;2023-03-16T07:02:41;100198.47;;;22.39
45701;BMP280;36277;32.852;-116.998;2023-03-16T07:05:09;100195.91;;;22.38
45701;BMP280;36277;32.852;-116.998;2023-03-16T07:07:40;100192.28;;;22.37
45701;BMP280;36277;32.852;-116.998;2023-03-16T07:10:16;100187.66;;;22.38
45701;BMP280;36277;32.852;-116.998;2023-03-16T07:12:43;100199.34;;;22.32
45701;BMP280;36277;32.852;-116.998;2023-03-16T07:15:10;100205.56;;;22.34
45701;BMP280;36277;32.852;-116.998;2023-03-16T07:17:37;100215.84;;;22.32
45701;BMP280;36277;32.852;-116.998;2023-03-16T07:20:04;100220.47;;;22.31
45701;BMP280;36277;32.852;-116.998;2023-03-16T07:22:35;100231.66;;;22.30
45701;BMP280;36277;32.852;-116.998;2023-03-16T07:25:02;100242.88;;;22.28
45701;BMP280;36277;32.852;-116.998;2023-03-16T07:27:28;100250.44;;;22.26
45701;BMP280;36277;32.852;-116.998;2023-03-16T07:29:56;100248.53;;;22.27
45701;BMP280;36277;32.852;-116.998;2023-03-16T07:32:22;100235.13;;;22.24
45701;BMP280;36277;32.852;-116.998;2023-03-16T07:34:48;100227.06;;;22.22
45701;BMP280;36277;32.852;-116.998;2023-03-16T07:37:14;100219.00;;;22.21
45701;BMP280;36277;32.852;-116.998;2023-03-16T07:39:41;100214.38;;;22.21
45701;BMP280;36277;32.852;-116.998;2023-03-16T07:42:07;100217.94;;;22.22
45701;BMP280;36277;32.852;-116.998;2023-03-16T07:44:34;100214.16;;;22.23
45701;BMP280;36277;32.852;-116.998;2023-03-16T07:47:00;100210.59;;;22.22
45701;BMP280;36277;32.852;-116.998;2023-03-16T07:49:27;100207.84;;;22.22
45701;BMP280;36277;32.852;-116.998;2023-03-16T07:51:53;100203.38;;;22.21
45701;BMP280;36277;32.852;-116.998;2023-03-16T07:54:19;100205.25;;;22.21
45701;BMP280;36277;32.852;-116.998;2023-03-16T07:56:46;100201.47;;;22.22
45701;BMP280;36277;32.852;-116.998;2023-03-16T07:59:12;100192.72;;;22.18
45701;BMP280;36277;32.852;-116.998;2023-03-16T08:01:38;100194.59;;;22.18
45701;BMP280;36277;32.852;-116.998;2023-03-16T08:04:04;100198.22;;;22.18
45701;BMP280;36277;32.852;-116.998;2023-03-16T08:06:31;100193.94;;;22.16
45701;BMP280;36277;32.852;-116.998;2023-03-16T08:08:57;100192.25;;;22.15
45701;BMP280;36277;32.852;-116.998;2023-03-16T08:11:23;100198.78;;;22.14
45701;BMP280;36277;32.852;-116.998;2023-03-16T08:13:50;100194.31;;;22.13
45701;BMP280;36277;32.852;-116.998;2023-03-16T08:16:24;100202.72;;;22.11
45701;BMP280;36277;32.852;-116.998;2023-03-16T08:18:54;100201.88;;;22.11
45701;BMP280;36277;32.852;-116.998;2023-03-16T08:21:21;100213.03;;;22.09
45701;BMP280;36277;32.852;-116.998;2023-03-16T08:23:48;100207.72;;;22.08
45701;BMP280;36277;32.852;-116.998;2023-03-16T08:26:21;100222.16;;;22.10
45701;BMP280;36277;32.852;-116.998;2023-03-16T08:28:50;100214.25;;;22.07
45701;BMP280;36277;32.852;-116.998;2023-03-16T08:31:18;100219.75;;;22.07
45701;BMP280;36277;32.852;-116.998;2023-03-16T08:33:46;100227.31;;;22.05
45701;BMP280;36277;32.852;-116.998;2023-03-16T08:36:15;100229.03;;;22.06
45701;BMP280;36277;32.852;-116.998;2023-03-16T08:38:41;100232.13;;;22.03
45701;BMP280;36277;32.852;-116.998;2023-03-16T08:41:09;100239.69;;;22.01
45701;BMP280;36277;32.852;-116.998;2023-03-16T08:43:37;100233.38;;;22.00
45701;BMP280;36277;32.852;-116.998;2023-03-16T08:46:03;100226.16;;;21.99
45701;BMP280;36277;32.852;-116.998;2023-03-16T08:48:31;100237.81;;;22.01
45701;BMP280;36277;32.852;-116.998;2023-03-16T08:51:02;100240.56;;;22.01
45701;BMP280;36277;32.852;-116.998;2023-03-16T08:53:30;100241.59;;;22.00
45701;BMP280;36277;32.852;-116.998;2023-03-16T08:56:05;100239.34;;;22.04
45701;BMP280;36277;32.852;-116.998;2023-03-16T08:58:32;100240.72;;;22.00
45701;BMP280;36277;32.852;-116.998;2023-03-16T09:01:04;100238.66;;;22.02
45701;BMP280;36277;32.852;-116.998;2023-03-16T09:03:32;100243.47;;;22.00
45701;BMP280;36277;32.852;-116.998;2023-03-16T09:06:01;100237.31;;;21.98
45701;BMP280;36277;32.852;-116.998;2023-03-16T09:08:28;100236.63;;;21.96
45701;BMP280;36277;32.852;-116.998;2023-03-16T09:10:59;100241.97;;;21.97
45701;BMP280;36277;32.852;-116.998;2023-03-16T09:13:27;100240.41;;;21.95
45701;BMP280;36277;32.852;-116.998;2023-03-16T09:15:53;100235.94;;;21.94
45701;BMP280;36277;32.852;-116.998;2023-03-16T09:18:20;100229.59;;;21.93
45701;BMP280;36277;32.852;-116.998;2023-03-16T09:20:47;100228.09;;;21.91
45701;BMP280;36277;32.852;-116.998;2023-03-16T09:23:14;100231.84;;;21.90
45701;BMP280;36277;32.852;-116.998;2023-03-16T09:25:41;100235.25;;;21.92
45701;BMP280;36277;32.852;-116.998;2023-03-16T09:28:07;100232.69;;;21.90
45701;BMP280;36277;32.852;-116.998;2023-03-16T09:30:33;100234.75;;;21.88
45701;BMP280;36277;32.852;-116.998;2023-03-16T09:33:00;100225.84;;;21.87
45701;BMP280;36277;32.852;-116.998;2023-03-16T09:35:26;100222.41;;;21.85
45701;BMP280;36277;32.852;-116.998;2023-03-16T09:37:52;100217.78;;;21.85
45701;BMP280;36277;32.852;-116.998;2023-03-16T09:40:29;100222.75;;;21.89
45701;BMP280;36277;32.852;-116.998;2023-03-16T09:48:10;100227.75;;;21.78
45701;BMP280;36277;32.852;-116.998;2023-03-16T09:50:38;100232.03;;;21.81
45701;BMP280;36277;32.852;-116.998;2023-03-16T09:53:27;100231.69;;;21.84
45701;BMP280;36277;32.852;-116.998;2023-03-16T09:56:02;100221.91;;;21.81
45701;BMP280;36277;32.852;-116.998;2023-03-16T09:58:29;100226.06;;;21.77
45701;BMP280;36277;32.852;-116.998;2023-03-16T10:01:35;;;;21.77
45701;BMP280;36277;32.852;-116.998;2023-03-16T10:04:37;100232.56;;;21.76
45701;BMP280;36277;32.852;-116.998;2023-03-16T10:09:53;100221.22;;;21.79
45701;BMP280;36277;32.852;-116.998;2023-03-16T10:12:28;100237.03;;;21.77
45701;BMP280;36277;32.852;-116.998;2023-03-16T10:14:57;100224.69;;;21.73
45701;BMP280;36277;32.852;-116.998;2023-03-16T10:17:38;100231.53;;;21.77
45701;BMP280;36277;32.852;-116.998;2023-03-16T10:20:14;100233.59;;;21.75
45701;BMP280;36277;32.852;-116.998;2023-03-16T10:22:44;100233.59;;;21.75
45701;BMP280;36277;32.852;-116.998;2023-03-16T10:27:50;100232.44;;;21.70
45701;BMP280;36277;32.852;-116.998;2023-03-16T10:30:35;100227.28;;;21.75
45701;BMP280;36277;32.852;-116.998;2023-03-16T10:38:43;100207.88;;;21.68
45701;BMP280;36277;32.852;-116.998;2023-03-16T10:43:56;100196.03;;;21.68
45701;BMP280;36277;32.852;-116.998;2023-03-16T10:46:25;100186.28;;;21.65
45701;BMP280;36277;32.852;-116.998;2023-03-16T10:48:57;100185.25;;;21.66
45701;BMP280;36277;32.852;-116.998;2023-03-16T10:51:33;100179.75;;;21.66
45701;BMP280;36277;32.852;-116.998;2023-03-16T10:54:07;100170.81;;;21.64
45701;BMP280;36277;32.852;-116.998;2023-03-16T10:56:36;100148.34;;;21.61
45701;BMP280;36277;32.852;-116.998;2023-03-16T10:59:34;100147.63;;;21.67
45701;BMP280;36277;32.852;-116.998;2023-03-16T11:02:07;100158.47;;;21.60
45701;BMP280;36277;32.852;-116.998;2023-03-16T11:04:39;100159.31;;;21.61
45701;BMP280;36277;32.852;-116.998;2023-03-16T11:07:06;100158.28;;;21.62
45701;BMP280;36277;32.852;-116.998;2023-03-16T11:09:40;100144.56;;;21.62
45701;BMP280;36277;32.852;-116.998;2023-03-16T11:12:28;100135.13;;;21.64
45701;BMP280;36277;32.852;-116.998;2023-03-16T11:15:01;100130.66;;;21.63
45701;BMP280;36277;32.852;-116.998;2023-03-16T11:17:42;100128.75;;;21.64
45701;BMP280;36277;32.852;-116.998;2023-03-16T11:20:17;100128.25;;;21.60
45701;BMP280;36277;32.852;-116.998;2023-03-16T11:22:46;100126.69;;;21.58
45701;BMP280;36277;32.852;-116.998;2023-03-16T11:25:27;100120.03;;;21.60
45701;BMP280;36277;32.852;-116.998;2023-03-16T11:30:35;100126.69;;;21.58
45701;BMP280;36277;32.852;-116.998;2023-03-16T11:33:12;100135.09;;;21.56
45701;BMP280;36277;32.852;-116.998;2023-03-16T11:36:00;100141.31;;;21.58
45701;BMP280;36277;32.852;-116.998;2023-03-16T11:44:25;100139.59;;;21.49
45701;BMP280;36277;32.852;-116.998;2023-03-16T11:50:00;100143.34;;;21.48
45701;BMP280;36277;32.852;-116.998;2023-03-16T11:57:52;100141.66;;;21.47
45701;BMP280;36277;32.852;-116.998;2023-03-16T12:08:58;100147.34;;;21.46
45701;BMP280;36277;32.852;-116.998;2023-03-16T12:17:03;100160.19;;;21.45
45701;BMP280;36277;32.852;-116.998;2023-03-16T12:22:57;100183.03;;;21.46
45701;BMP280;36277;32.852;-116.998;2023-03-16T12:25:30;100191.59;;;21.43
45701;BMP280;36277;32.852;-116.998;2023-03-16T12:28:01;100191.59;;;21.43
45701;BMP280;36277;32.852;-116.998;2023-03-16T12:34:03;100197.25;;;21.41
45701;BMP280;36277;32.852;-116.998;2023-03-16T12:36:50;100198.47;;;21.39
45701;BMP280;36277;32.852;-116.998;2023-03-16T12:45:09;100184.06;;;21.37
45701;BMP280;36277;32.852;-116.998;2023-03-16T12:50:18;100185.28;;;21.34
45701;BMP280;36277;32.852;-116.998;2023-03-16T12:52:51;100185.28;;;21.34
45701;BMP280;36277;32.852;-116.998;2023-03-16T12:55:38;100197.63;;;21.38
45701;BMP280;36277;32.852;-116.998;2023-03-16T12:58:06;100192.66;;;21.34
45701;BMP280;36277;32.852;-116.998;2023-03-16T13:00:39;100180.47;;;21.36
45701;BMP280;36277;32.852;-116.998;2023-03-16T13:03:13;100176.69;;;21.37
45701;BMP280;36277;32.852;-116.998;2023-03-16T13:05:55;100166.56;;;21.38
45701;BMP280;36277;32.852;-116.998;2023-03-16T13:08:23;100167.25;;;21.32
45701;BMP280;36277;32.852;-116.998;2023-03-16T13:13:26;100188.38;;;21.31
45701;BMP280;36277;32.852;-116.998;2023-03-16T13:16:08;100190.44;;;21.37
45701;BMP280;36277;32.852;-116.998;2023-03-16T13:18:40;100199.84;;;21.35
45701;BMP280;36277;32.852;-116.998;2023-03-16T13:21:21;100209.81;;;21.36
45701;BMP280;36277;32.852;-116.998;2023-03-16T13:24:26;100219.25;;;21.33
45701;BMP280;36277;32.852;-116.998;2023-03-16T13:27:12;100214.78;;;21.32
45701;BMP280;36277;32.852;-116.998;2023-03-16T13:29:55;100231.28;;;21.32
45701;BMP280;36277;32.852;-116.998;2023-03-16T13:32:21;100226.13;;;21.29
45701;BMP280;36277;32.852;-116.998;2023-03-16T13:34:52;100228.53;;;21.32
45701;BMP280;36277;32.852;-116.998;2023-03-16T13:37:22;100219.59;;;21.30
45701;BMP280;36277;32.852;-116.998;2023-03-16T13:39:58;100225.44;;;21.35
45701;BMP280;36277;32.852;-116.998;2023-03-16T13:42:28;100238.47;;;21.33
45701;BMP280;36277;32.852;-116.998;2023-03-16T13:44:57;100248.91;;;21.30
45701;BMP280;36277;32.852;-116.998;2023-03-16T13:47:26;100250.50;;;21.32
45701;BMP280;36277;32.852;-116.998;2023-03-16T13:49:59;100249.97;;;21.37
45701;BMP280;36277;32.852;-116.998;2023-03-16T13:52:27;100251.31;;;21.33
45701;BMP280;36277;32.852;-116.998;2023-03-16T13:54:55;100260.44;;;21.33
45701;BMP280;36277;32.852;-116.998;2023-03-16T13:57:27;100258.72;;;21.32
45701;BMP280;36277;32.852;-116.998;2023-03-16T14:02:46;100246.38;;;21.28
45701;BMP280;36277;32.852;-116.998;2023-03-16T14:05:20;100246.19;;;21.30
45701;BMP280;36277;32.852;-116.998;2023-03-16T14:07:49;100251.16;;;21.26
45701;BMP280;36277;32.852;-116.998;2023-03-16T14:10:16;100254.94;;;21.25
45701;BMP280;36277;32.852;-116.998;2023-03-16T14:12:51;100259.06;;;21.29
45701;BMP280;36277;32.852;-116.998;2023-03-16T14:15:18;100259.75;;;21.23
45701;BMP280;36277;32.852;-116.998;2023-03-16T14:17:45;100262.81;;;21.20
45701;BMP280;36277;32.852;-116.998;2023-03-16T14:20:21;100254.94;;;21.25
45701;BMP280;36277;32.852;-116.998;2023-03-16T14:22:52;100263.50;;;21.22
45701;BMP280;36277;32.852;-116.998;2023-03-16T14:25:24;100253.41;;;21.23
45701;BMP280;36277;32.852;-116.998;2023-03-16T14:28:00;100257.53;;;21.27
45701;BMP280;36277;32.852;-116.998;2023-03-16T14:30:28;100264.06;;;21.26
45701;BMP280;36277;32.852;-116.998;2023-03-16T14:33:01;100266.97;;;21.32
45701;BMP280;36277;32.852;-116.998;2023-03-16T14:35:40;100266.97;;;21.32
45701;BMP280;36277;32.852;-116.998;2023-03-16T14:38:32;100265.06;;;21.33
45701;BMP280;36277;32.852;-116.998;2023-03-16T14:43:43;100276.03;;;21.33
45701;BMP280;36277;32.852;-116.998;2023-03-16T14:46:12;100267.66;;;21.34
45701;BMP280;36277;32.852;-116.998;2023-03-16T14:48:40;100263.34;;;21.32
45701;BMP280;36277;32.852;-116.998;2023-03-16T14:51:12;100275.88;;;21.34
45701;BMP280;36277;32.852;-116.998;2023-03-16T14:53:39;100275.88;;;21.34
45701;BMP280;36277;32.852;-116.998;2023-03-16T14:56:11;100264.38;;;21.39
45701;BMP280;36277;32.852;-116.998;2023-03-16T14:58:39;100261.81;;;21.37